Golden Valley, North Dakota
Current Conditions -  °F | °C
As of 3:35 AM on Thursday 23 Oct 2014 (Local Time) from KHZE Reporting Station
Clear Clear  
Wind Chill: 27°   Ceiling: Unl
Heat Index: 32°   Visibility: 10mi
Dew Point: 30°   Wind: 5mph
Humidity: 93%   Direction: 230°SW
Pressure: 29.9"   Gusts: NA
Location:  47.29°N, 102.06°W
Report Text: KHZE 230935Z AUTO 23004KT 10SM CLR 00/M01 A2990 RMK AO2
Loading
Personal Weather Stations






























Interactive Weather Map
Tropical Storm Tracking
New forecast layout! Learn more

10-Day Weather Forecast

Advertisements
Track Severe Weather on mobile